createdAt,value
2023-05-04T00:01:28.840Z,7.34
2023-05-04T00:04:15.851Z,7.27
2023-05-04T00:07:02.456Z,7.21
2023-05-04T00:09:51.111Z,7.24
2023-05-04T00:12:38.184Z,7.20
2023-05-04T00:15:24.836Z,7.14
2023-05-04T00:18:11.527Z,7.09
2023-05-04T00:20:59.581Z,7.03
2023-05-04T00:23:46.234Z,7.03
2023-05-04T00:26:34.319Z,7.02
2023-05-04T00:29:21.181Z,6.97
2023-05-04T00:32:07.901Z,6.96
2023-05-04T00:34:54.852Z,6.83
2023-05-04T00:37:43.828Z,6.87
2023-05-04T00:40:30.358Z,6.84
2023-05-04T00:43:18.587Z,6.80
2023-05-04T00:46:05.395Z,6.78
2023-05-04T00:48:53.735Z,6.82
2023-05-04T00:51:41.182Z,6.83
2023-05-04T00:54:29.096Z,6.78
2023-05-04T00:57:18.043Z,6.72
2023-05-04T01:00:08.650Z,6.67
2023-05-04T01:02:55.134Z,6.59
2023-05-04T01:05:53.487Z,6.60
2023-05-04T01:08:43.573Z,6.44
2023-05-04T01:11:37.482Z,6.39
2023-05-04T01:14:25.348Z,6.37
2023-05-04T01:17:13.822Z,6.42
2023-05-04T01:20:00.450Z,6.40
2023-05-04T01:22:48.765Z,6.37
2023-05-04T01:25:41.016Z,6.21
2023-05-04T01:28:36.226Z,6.20
2023-05-04T01:31:26.290Z,6.21
2023-05-04T01:34:13.971Z,6.40
2023-05-04T01:37:00.747Z,6.30
2023-05-04T01:39:48.826Z,6.19
2023-05-04T01:42:35.616Z,6.09
2023-05-04T01:45:22.641Z,5.99
2023-05-04T01:48:09.487Z,5.97
2023-05-04T01:50:56.100Z,6.06
2023-05-04T01:53:42.818Z,6.09
2023-05-04T01:56:31.632Z,5.94
2023-05-04T01:59:18.480Z,5.85
2023-05-04T02:02:05.171Z,5.89
2023-05-04T02:04:51.752Z,5.93
2023-05-04T02:07:38.579Z,5.90
2023-05-04T02:10:26.931Z,5.93
2023-05-04T02:13:15.013Z,5.84
2023-05-04T02:16:02.020Z,5.73
2023-05-04T02:18:48.490Z,5.86
2023-05-04T02:21:35.990Z,5.75
2023-05-04T02:24:22.524Z,5.73
2023-05-04T02:27:09.227Z,5.69
2023-05-04T02:29:58.499Z,5.71
2023-05-04T02:32:45.117Z,5.76
2023-05-04T02:35:31.907Z,5.73
2023-05-04T02:38:18.521Z,5.59
2023-05-04T02:41:05.439Z,5.54
2023-05-04T02:43:52.273Z,5.48
2023-05-04T02:46:40.458Z,5.48
2023-05-04T02:49:27.083Z,5.49
2023-05-04T02:52:13.976Z,5.46
2023-05-04T02:55:03.360Z,5.45
2023-05-04T02:57:50.147Z,5.33
2023-05-04T03:00:37.023Z,5.32
2023-05-04T03:03:25.233Z,5.40
2023-05-04T03:06:12.301Z,5.38
2023-05-04T03:08:58.996Z,5.35
2023-05-04T03:11:45.861Z,5.23
2023-05-04T03:14:32.654Z,5.19
2023-05-04T03:17:19.794Z,5.10
2023-05-04T03:20:10.052Z,5.04
2023-05-04T03:22:56.542Z,5.02
2023-05-04T03:25:44.784Z,5.02
2023-05-04T03:28:31.357Z,5.09
2023-05-04T03:31:18.387Z,5.34
2023-05-04T03:34:09.765Z,5.14
2023-05-04T03:36:57.982Z,5.01
2023-05-04T03:39:45.089Z,5.00
2023-05-04T03:42:31.898Z,4.97
2023-05-04T03:45:19.007Z,4.98
2023-05-04T03:48:05.609Z,5.03
2023-05-04T03:50:52.500Z,5.09
2023-05-04T03:53:41.377Z,5.00
2023-05-04T03:56:29.212Z,5.10
2023-05-04T03:59:17.629Z,5.11
2023-05-04T04:02:05.159Z,5.05
2023-05-04T04:04:51.957Z,5.01
2023-05-04T04:07:38.685Z,5.01
2023-05-04T04:10:27.021Z,5.04
2023-05-04T04:13:13.622Z,5.10
2023-05-04T04:16:00.544Z,5.15
2023-05-04T04:18:48.121Z,5.20
2023-05-04T04:21:35.358Z,5.45
2023-05-04T04:24:22.277Z,5.39
2023-05-04T04:27:10.411Z,5.57
2023-05-04T04:29:57.426Z,5.87
2023-05-04T04:32:44.325Z,5.98
2023-05-04T04:35:32.795Z,6.53
2023-05-04T04:38:19.402Z,6.90
2023-05-04T04:41:06.461Z,7.00
2023-05-04T04:43:54.422Z,6.92
2023-05-04T04:46:41.287Z,6.88
2023-05-04T04:49:27.917Z,7.18
2023-05-04T04:52:15.669Z,7.15
2023-05-04T04:55:02.505Z,7.20
2023-05-04T04:57:48.933Z,7.17
2023-05-04T05:00:37.523Z,7.41
2023-05-04T05:03:24.144Z,9.12
2023-05-04T05:06:11.398Z,11.03
2023-05-04T05:08:58.347Z,12.45
2023-05-04T05:11:45.099Z,14.37
2023-05-04T05:14:39.377Z,15.09
2023-05-04T05:17:37.081Z,16.43
2023-05-04T05:20:34.385Z,16.61
2023-05-04T05:23:26.282Z,16.40
2023-05-04T05:26:14.574Z,17.51
2023-05-04T05:29:01.848Z,17.40
2023-05-04T05:31:49.517Z,17.73
2023-05-04T05:34:39.026Z,17.92
2023-05-04T05:37:25.721Z,18.56
2023-05-04T05:40:14.205Z,18.72
2023-05-04T05:43:01.240Z,19.10
2023-05-04T05:45:48.821Z,19.54
2023-05-04T05:48:35.695Z,19.92
2023-05-04T05:51:23.593Z,19.43
2023-05-04T05:54:10.602Z,19.71
2023-05-04T05:56:56.971Z,19.18
2023-05-04T05:59:45.862Z,18.95
2023-05-04T06:02:32.784Z,19.05
2023-05-04T06:05:19.486Z,18.46
2023-05-04T06:08:07.764Z,17.64
2023-05-04T06:10:56.422Z,16.53
2023-05-04T06:13:43.210Z,15.62
2023-05-04T06:16:29.878Z,15.89
2023-05-04T06:19:16.671Z,17.07
2023-05-04T06:22:04.211Z,17.06
2023-05-04T06:24:53.999Z,17.73
2023-05-04T06:27:43.729Z,17.31
2023-05-04T06:30:30.465Z,17.45
2023-05-04T06:33:17.795Z,16.96
2023-05-04T06:36:04.877Z,16.86
2023-05-04T06:38:51.378Z,16.73
2023-05-04T06:41:39.506Z,16.19
2023-05-04T06:44:26.456Z,15.53
2023-05-04T06:47:12.821Z,15.44
2023-05-04T06:49:59.768Z,14.78
2023-05-04T06:52:47.509Z,15.17
2023-05-04T06:55:34.076Z,15.08
2023-05-04T06:58:22.415Z,15.14
2023-05-04T07:01:09.442Z,15.16
2023-05-04T07:03:58.461Z,15.18
2023-05-04T07:06:45.051Z,14.99
2023-05-04T07:09:31.911Z,15.31
2023-05-04T07:12:19.265Z,15.79
2023-05-04T07:15:08.918Z,15.21
2023-05-04T07:17:55.715Z,14.83
2023-05-04T07:20:43.354Z,15.15
2023-05-04T07:23:30.203Z,15.21
2023-05-04T07:26:16.878Z,15.41
2023-05-04T07:29:03.671Z,15.34
2023-05-04T07:31:52.086Z,15.13
2023-05-04T07:34:45.697Z,14.98
2023-05-04T07:37:33.557Z,15.12
2023-05-04T07:40:21.580Z,15.20
2023-05-04T07:43:08.063Z,15.05
2023-05-04T07:45:55.126Z,15.14
2023-05-04T07:48:42.971Z,15.69
2023-05-04T07:51:29.912Z,15.79
2023-05-04T07:54:16.590Z,15.71
2023-05-04T07:57:04.373Z,15.84
2023-05-04T07:59:55.243Z,15.66
2023-05-04T08:02:42.054Z,15.73
2023-05-04T08:05:30.213Z,16.00
2023-05-04T08:08:17.394Z,16.22
2023-05-04T08:11:18.498Z,16.42
2023-05-04T08:14:06.799Z,16.51
2023-05-04T08:16:53.724Z,16.55
2023-05-04T08:19:40.568Z,16.93
2023-05-04T08:22:28.635Z,17.19
2023-05-04T08:25:15.693Z,17.48
2023-05-04T08:28:02.501Z,17.66
2023-05-04T08:30:49.398Z,17.52
2023-05-04T08:33:36.100Z,17.78
2023-05-04T08:36:22.962Z,18.95
2023-05-04T08:39:12.082Z,19.83
2023-05-04T08:41:59.112Z,21.09
2023-05-04T08:44:45.999Z,22.03
2023-05-04T08:47:32.990Z,21.38
2023-05-04T08:50:19.735Z,21.98
2023-05-04T08:53:08.486Z,21.78
2023-05-04T08:55:57.670Z,21.89
2023-05-04T08:58:50.520Z,22.06
2023-05-04T09:01:39.100Z,21.61
2023-05-04T09:04:29.328Z,21.11
2023-05-04T09:07:16.502Z,21.42
2023-05-04T09:10:04.259Z,21.06
2023-05-04T09:12:56.113Z,20.97
2023-05-04T09:15:43.190Z,21.51
2023-05-04T09:18:40.701Z,21.57
2023-05-04T09:21:30.237Z,20.92
2023-05-04T09:24:27.005Z,20.81
2023-05-04T09:27:15.882Z,20.93
2023-05-04T09:30:05.568Z,20.84
2023-05-04T09:32:53.088Z,20.52
2023-05-04T09:35:42.226Z,20.35
2023-05-04T09:38:29.835Z,20.21
2023-05-04T09:41:16.709Z,20.03
2023-05-04T09:44:03.539Z,20.78
2023-05-04T09:46:55.967Z,20.10
2023-05-04T09:49:42.481Z,20.48
2023-05-04T09:52:33.148Z,20.19
2023-05-04T09:55:21.244Z,20.39
2023-05-04T09:58:08.508Z,20.66
2023-05-04T10:00:55.004Z,20.50
2023-05-04T10:03:44.729Z,20.92
2023-05-04T10:06:31.512Z,21.13
2023-05-04T10:09:18.408Z,21.82
2023-05-04T10:12:05.755Z,22.42
2023-05-04T10:14:52.992Z,22.18
2023-05-04T10:17:55.893Z,21.91
2023-05-04T10:21:16.352Z,21.56
2023-05-04T10:24:26.827Z,21.23
2023-05-04T10:27:16.961Z,21.21
2023-05-04T10:30:05.114Z,21.26
2023-05-04T10:32:57.375Z,21.03
2023-05-04T10:35:53.617Z,21.29
2023-05-04T10:38:41.717Z,21.41
2023-05-04T10:41:28.581Z,21.33
2023-05-04T10:44:15.261Z,20.94
2023-05-04T10:47:03.949Z,21.13
2023-05-04T10:50:01.472Z,21.04
2023-05-04T10:52:50.780Z,21.11
2023-05-04T10:55:42.073Z,21.36
2023-05-04T10:58:29.991Z,20.77
2023-05-04T11:01:16.855Z,20.87
2023-05-04T11:04:03.730Z,20.24
2023-05-04T11:06:58.373Z,19.87
2023-05-04T11:09:46.505Z,19.95
2023-05-04T11:12:33.545Z,20.14
2023-05-04T11:15:20.648Z,20.43
2023-05-04T11:18:07.564Z,20.35
2023-05-04T11:20:54.357Z,20.37
2023-05-04T11:23:41.527Z,20.25
2023-05-04T11:26:29.488Z,20.57
2023-05-04T11:29:16.613Z,20.65
2023-05-04T11:32:03.097Z,20.72
2023-05-04T11:34:49.832Z,20.77
2023-05-04T11:37:41.343Z,20.93
2023-05-04T11:40:28.638Z,21.18
2023-05-04T11:43:18.031Z,21.18
2023-05-04T11:46:05.644Z,21.00
2023-05-04T11:48:52.804Z,21.05
2023-05-04T11:51:39.399Z,21.20
2023-05-04T11:54:26.201Z,20.81
2023-05-04T11:57:22.906Z,21.03
2023-05-04T12:00:12.530Z,21.33
2023-05-04T12:03:00.912Z,21.61
2023-05-04T12:05:48.535Z,21.58
2023-05-04T12:08:38.164Z,21.41
2023-05-04T12:11:26.046Z,21.52
2023-05-04T12:14:15.176Z,21.39
2023-05-04T12:17:03.553Z,21.14
2023-05-04T12:19:56.136Z,21.59
2023-05-04T12:22:42.959Z,21.09
2023-05-04T12:25:29.718Z,20.93
2023-05-04T12:28:16.570Z,21.26
2023-05-04T12:31:04.765Z,21.23
2023-05-04T12:33:52.832Z,21.12
2023-05-04T12:36:39.475Z,21.00
2023-05-04T12:39:28.067Z,20.71
2023-05-04T12:42:14.592Z,21.03
2023-05-04T12:45:01.521Z,21.16
2023-05-04T12:47:48.127Z,21.21
2023-05-04T12:50:36.287Z,21.22
2023-05-04T12:53:25.982Z,21.08
2023-05-04T12:56:12.390Z,21.36
2023-05-04T12:58:59.133Z,21.45
2023-05-04T13:01:46.311Z,21.42
2023-05-04T13:04:33.037Z,21.71
2023-05-04T13:07:21.055Z,21.11
2023-05-04T13:10:09.003Z,21.10
2023-05-04T13:12:56.055Z,21.49
2023-05-04T13:15:43.353Z,21.46
2023-05-04T13:18:34.712Z,21.77
2023-05-04T13:21:21.976Z,22.01
2023-05-04T13:24:11.429Z,21.96
2023-05-04T13:26:58.392Z,22.10
2023-05-04T13:29:45.372Z,22.19
2023-05-04T13:32:33.247Z,22.20
2023-05-04T13:35:20.833Z,21.89
2023-05-04T13:38:07.420Z,22.39
2023-05-04T13:40:55.615Z,22.29
2023-05-04T13:43:42.397Z,22.50
2023-05-04T13:46:29.230Z,22.62
2023-05-04T13:49:16.070Z,22.63
2023-05-04T13:52:02.989Z,22.61
2023-05-04T13:54:49.713Z,22.40
2023-05-04T13:57:37.953Z,21.88
2023-05-04T14:00:24.856Z,21.96
2023-05-04T14:03:11.685Z,22.23
2023-05-04T14:05:59.300Z,21.92
2023-05-04T14:08:45.784Z,22.33
2023-05-04T14:11:32.993Z,22.21
2023-05-04T14:14:21.909Z,22.24
2023-05-04T14:17:08.997Z,21.93
2023-05-04T14:19:56.868Z,22.22
2023-05-04T14:22:43.671Z,22.21
2023-05-04T14:25:32.407Z,22.58
2023-05-04T14:28:21.828Z,22.62
2023-05-04T14:31:10.926Z,22.49
2023-05-04T14:33:57.705Z,22.54
2023-05-04T14:36:44.555Z,22.00
2023-05-04T14:39:31.346Z,22.05
2023-05-04T14:42:18.121Z,21.82
2023-05-04T14:45:05.417Z,21.88
2023-05-04T14:47:53.695Z,21.61
2023-05-04T14:50:41.636Z,21.43
2023-05-04T14:53:29.916Z,21.26
2023-05-04T14:56:16.612Z,21.43
2023-05-04T14:59:03.524Z,21.43
2023-05-04T15:01:50.520Z,21.41
2023-05-04T15:04:38.563Z,21.29
2023-05-04T15:07:26.912Z,21.57
2023-05-04T15:10:14.907Z,21.75
2023-05-04T15:13:03.383Z,21.51
2023-05-04T15:15:50.029Z,22.04
2023-05-04T15:18:36.843Z,22.24
2023-05-04T15:21:24.964Z,21.95
2023-05-04T15:24:11.825Z,22.00
2023-05-04T15:26:58.792Z,21.72
2023-05-04T15:29:45.248Z,21.68
2023-05-04T15:32:32.397Z,21.45
2023-05-04T15:35:19.353Z,21.26
2023-05-04T15:38:07.229Z,21.19
2023-05-04T15:40:54.145Z,21.46
2023-05-04T15:43:40.964Z,21.63
2023-05-04T15:46:27.765Z,21.61
2023-05-04T15:49:14.748Z,21.58
2023-05-04T15:52:01.524Z,21.26
2023-05-04T15:54:49.512Z,21.18
2023-05-04T15:57:36.804Z,21.16
2023-05-04T16:00:24.002Z,21.04
2023-05-04T16:03:10.538Z,20.70
2023-05-04T16:05:57.344Z,20.85
2023-05-04T16:08:44.220Z,20.99
2023-05-04T16:11:33.221Z,20.99
2023-05-04T16:14:19.942Z,21.07
2023-05-04T16:17:07.514Z,21.14
2023-05-04T16:19:54.173Z,20.93
2023-05-04T16:22:40.837Z,21.16
2023-05-04T16:25:27.567Z,20.89
2023-05-04T16:28:28.000Z,20.81
2023-05-04T16:31:14.817Z,20.50
2023-05-04T16:34:01.716Z,20.53
2023-05-04T16:36:48.470Z,20.46
2023-05-04T16:39:36.219Z,20.42
2023-05-04T16:42:22.773Z,20.18
2023-05-04T16:45:13.560Z,20.25
2023-05-04T16:48:01.086Z,20.30
2023-05-04T16:50:47.864Z,20.12
2023-05-04T16:53:34.605Z,20.06
2023-05-04T16:56:21.401Z,20.08
2023-05-04T16:59:08.076Z,20.06
2023-05-04T17:01:56.568Z,19.82
2023-05-04T17:04:43.646Z,19.82
2023-05-04T17:07:30.163Z,19.74
2023-05-04T17:10:18.371Z,19.69
2023-05-04T17:13:05.112Z,19.67
2023-05-04T17:15:51.689Z,19.50
2023-05-04T17:18:40.452Z,19.21
2023-05-04T17:21:27.445Z,19.33
2023-05-04T17:24:15.215Z,19.20
2023-05-04T17:27:03.246Z,19.12
2023-05-04T17:29:50.031Z,19.09
2023-05-04T17:32:37.500Z,19.00
2023-05-04T17:35:26.779Z,18.88
2023-05-04T17:38:13.605Z,18.99
2023-05-04T17:41:00.445Z,18.78
2023-05-04T17:43:50.236Z,18.73
2023-05-04T17:46:36.917Z,18.58
2023-05-04T17:49:23.344Z,18.43
2023-05-04T17:52:13.657Z,18.34
2023-05-04T17:55:01.176Z,18.18
2023-05-04T17:57:47.877Z,18.04
2023-05-04T18:00:34.867Z,18.01
2023-05-04T18:03:21.487Z,18.00
2023-05-04T18:06:08.323Z,18.01
2023-05-04T18:08:56.354Z,17.99
2023-05-04T18:11:43.069Z,17.88
2023-05-04T18:14:30.038Z,17.90
2023-05-04T18:17:16.847Z,17.83
2023-05-04T18:20:04.344Z,17.75
2023-05-04T18:22:51.042Z,17.49
2023-05-04T18:25:39.183Z,17.45
2023-05-04T18:28:25.671Z,17.46
2023-05-04T18:31:12.439Z,17.23
2023-05-04T18:34:02.529Z,17.04
2023-05-04T18:36:49.427Z,17.08
2023-05-04T18:39:36.580Z,17.01
2023-05-04T18:42:24.508Z,16.90
2023-05-04T18:45:12.467Z,16.98
2023-05-04T18:47:58.973Z,16.86
2023-05-04T18:50:54.029Z,16.94
2023-05-04T18:53:40.692Z,16.78
2023-05-04T18:56:27.699Z,16.72
2023-05-04T18:59:15.506Z,16.85
2023-05-04T19:02:02.582Z,16.81
2023-05-04T19:04:48.943Z,16.88
2023-05-04T19:07:35.824Z,16.89
2023-05-04T19:10:22.475Z,16.88
2023-05-04T19:13:09.512Z,16.84
2023-05-04T19:15:57.485Z,16.80
2023-05-04T19:18:44.640Z,16.73
2023-05-04T19:21:31.971Z,16.69
2023-05-04T19:24:19.022Z,16.66
2023-05-04T19:27:05.628Z,16.89
2023-05-04T19:29:52.228Z,16.81
2023-05-04T19:32:40.576Z,16.87
2023-05-04T19:35:27.069Z,16.86
2023-05-04T19:38:13.646Z,16.81
2023-05-04T19:41:00.473Z,16.78
2023-05-04T19:43:47.178Z,16.80
2023-05-04T19:46:33.955Z,16.64
2023-05-04T19:49:22.364Z,16.68
2023-05-04T19:52:09.289Z,16.48
2023-05-04T19:54:56.017Z,16.56
2023-05-04T19:57:42.769Z,16.53
2023-05-04T20:00:29.721Z,16.51
2023-05-04T20:03:17.143Z,16.32
2023-05-04T20:06:05.367Z,16.18
2023-05-04T20:08:52.353Z,16.13
2023-05-04T20:11:39.093Z,16.03
2023-05-04T20:14:25.807Z,15.95
2023-05-04T20:17:12.669Z,15.89
2023-05-04T20:19:59.634Z,16.01
2023-05-04T20:22:49.215Z,15.94
2023-05-04T20:25:35.815Z,16.08
2023-05-04T20:28:23.064Z,16.08
2023-05-04T20:31:10.114Z,16.06
2023-05-04T20:33:56.660Z,15.93
2023-05-04T20:36:43.411Z,15.79
2023-05-04T20:39:31.611Z,15.69
2023-05-04T20:42:18.722Z,15.78
2023-05-04T20:45:06.594Z,15.88
2023-05-04T20:47:53.381Z,15.90
2023-05-04T20:50:40.423Z,15.77
2023-05-04T20:53:27.522Z,15.67
2023-05-04T20:56:15.821Z,15.71
2023-05-04T20:59:04.673Z,15.52
2023-05-04T21:01:51.502Z,15.49
2023-05-04T21:04:38.334Z,15.41
2023-05-04T21:07:25.216Z,15.46
2023-05-04T21:10:12.256Z,15.24
2023-05-04T21:13:05.703Z,15.33
2023-05-04T21:15:55.281Z,15.38
2023-05-04T21:18:45.849Z,15.25
2023-05-04T21:21:34.815Z,15.14
2023-05-04T21:24:22.017Z,15.23
2023-05-04T21:27:09.040Z,15.23
2023-05-04T21:29:57.223Z,15.13
2023-05-04T21:32:43.785Z,15.16
2023-05-04T21:35:30.916Z,15.12
2023-05-04T21:38:18.975Z,14.94
2023-05-04T21:41:12.688Z,14.97
2023-05-04T21:43:59.314Z,14.89
2023-05-04T21:46:47.557Z,14.89
2023-05-04T21:49:34.447Z,14.85
2023-05-04T21:52:21.629Z,14.70
2023-05-04T21:55:08.730Z,14.68
2023-05-04T21:57:56.216Z,14.64
2023-05-04T22:00:43.997Z,14.69
2023-05-04T22:03:32.385Z,14.43
2023-05-04T22:06:18.992Z,14.40
2023-05-04T22:09:05.931Z,14.40
2023-05-04T22:11:52.553Z,14.29
2023-05-04T22:14:41.641Z,14.34
2023-05-04T22:17:28.916Z,14.22
2023-05-04T22:20:17.034Z,14.10
2023-05-04T22:23:04.005Z,13.64
2023-05-04T22:25:50.771Z,13.97
2023-05-04T22:28:37.687Z,13.89
2023-05-04T22:31:24.330Z,13.93
2023-05-04T22:34:11.094Z,13.85
2023-05-04T22:36:59.267Z,13.66
2023-05-04T22:39:45.982Z,13.59
2023-05-04T22:42:32.717Z,13.62
2023-05-04T22:45:19.860Z,13.53
2023-05-04T22:48:06.329Z,13.50
2023-05-04T22:50:53.227Z,13.54
2023-05-04T22:53:41.118Z,13.45
2023-05-04T22:56:27.737Z,13.41
2023-05-04T22:59:15.087Z,13.24
2023-05-04T23:02:01.874Z,13.20
2023-05-04T23:04:48.470Z,13.06
2023-05-04T23:07:34.983Z,12.98
2023-05-04T23:10:23.572Z,13.01
2023-05-04T23:13:10.498Z,12.92
2023-05-04T23:15:57.794Z,12.89
2023-05-04T23:18:44.631Z,12.60
2023-05-04T23:21:31.643Z,12.79
2023-05-04T23:24:18.032Z,12.69
2023-05-04T23:27:06.385Z,12.74
2023-05-04T23:29:53.138Z,12.64
2023-05-04T23:32:39.883Z,12.45
2023-05-04T23:35:27.077Z,12.14
2023-05-04T23:38:14.005Z,12.37
2023-05-04T23:41:03.390Z,12.30
2023-05-04T23:43:51.479Z,12.28
2023-05-04T23:46:38.301Z,12.31
2023-05-04T23:49:25.239Z,12.33
2023-05-04T23:52:12.036Z,12.05
2023-05-04T23:54:58.712Z,11.91
2023-05-04T23:57:45.583Z,12.01
